createdAt,value
2023-03-26T00:01:27.375Z,2.50
2023-03-26T00:04:14.475Z,2.40
2023-03-26T00:06:55.390Z,2.40
2023-03-26T00:12:22.451Z,2.58
2023-03-26T00:15:11.399Z,2.70
2023-03-26T00:17:54.157Z,2.55
2023-03-26T00:20:40.402Z,2.45
2023-03-26T00:23:20.884Z,2.63
2023-03-26T00:26:09.388Z,2.55
2023-03-26T00:28:50.814Z,2.80
2023-03-26T00:34:18.315Z,2.45
2023-03-26T00:39:49.548Z,2.67
2023-03-26T00:42:36.399Z,3.15
2023-03-26T00:45:21.251Z,2.75
2023-03-26T00:48:08.418Z,2.92
2023-03-26T00:50:48.445Z,2.78
2023-03-26T00:53:35.385Z,2.80
2023-03-26T00:56:16.508Z,3.10
2023-03-26T00:59:04.388Z,2.83
2023-03-26T01:01:44.842Z,2.90
2023-03-26T01:04:40.643Z,3.08
2023-03-26T01:07:28.766Z,2.72
2023-03-26T01:10:15.389Z,2.97
2023-03-26T01:12:55.506Z,2.80
2023-03-26T01:15:43.454Z,3.13
2023-03-26T01:18:34.188Z,2.67
2023-03-26T01:21:21.394Z,2.67
2023-03-26T01:24:07.542Z,2.90
2023-03-26T01:27:08.427Z,2.70
2023-03-26T01:30:01.333Z,2.70
2023-03-26T01:32:51.546Z,3.10
2023-03-26T01:35:44.521Z,2.92
2023-03-26T01:38:39.398Z,2.95
2023-03-26T01:41:51.468Z,2.72
2023-03-26T01:44:51.391Z,2.92
2023-03-26T01:47:32.492Z,2.67
2023-03-26T01:50:20.407Z,3.10
2023-03-26T01:53:07.418Z,3.08
2023-03-26T01:59:25.415Z,3.40
2023-03-26T02:02:29.447Z,3.00
2023-03-26T02:05:19.390Z,3.22
2023-03-26T02:08:35.201Z,3.00
2023-03-26T02:11:34.729Z,3.25
2023-03-26T02:14:30.422Z,2.65
2023-03-26T02:17:11.401Z,3.13
2023-03-26T02:22:47.398Z,2.97
2023-03-26T02:25:29.527Z,2.70
2023-03-26T02:28:16.412Z,2.90
2023-03-26T02:30:57.671Z,3.38
2023-03-26T02:36:33.550Z,3.00
2023-03-26T02:39:21.407Z,2.63
2023-03-26T02:42:12.394Z,3.10
2023-03-26T02:44:54.929Z,2.58
2023-03-26T02:48:04.400Z,2.50
2023-03-26T02:51:13.423Z,3.13
2023-03-26T02:54:03.227Z,3.03
2023-03-26T02:57:09.417Z,3.78
2023-03-26T02:59:58.937Z,2.88
2023-03-26T03:02:51.519Z,3.13
2023-03-26T03:05:59.432Z,3.40
2023-03-26T03:08:52.394Z,3.20
2023-03-26T03:11:43.899Z,3.22
2023-03-26T03:14:30.393Z,3.88
2023-03-26T03:17:17.417Z,2.75
2023-03-26T03:19:57.454Z,3.33
2023-03-26T03:22:44.402Z,3.58
2023-03-26T03:25:25.990Z,3.67
2023-03-26T03:28:14.406Z,3.25
2023-03-26T03:30:57.571Z,3.45
2023-03-26T03:33:45.398Z,3.70
2023-03-26T03:36:36.411Z,3.45
2023-03-26T03:39:35.403Z,3.25
2023-03-26T03:42:23.405Z,3.50
2023-03-26T03:45:14.482Z,3.55
2023-03-26T03:48:13.389Z,4.65
2023-03-26T03:51:09.424Z,4.45
2023-03-26T03:54:31.405Z,5.80
2023-03-26T03:57:21.974Z,5.85
2023-03-26T04:00:15.426Z,5.28
2023-03-26T04:03:08.570Z,4.70
2023-03-26T04:06:01.444Z,5.97
2023-03-26T04:08:41.488Z,5.88
2023-03-26T04:11:28.406Z,6.35
2023-03-26T04:14:30.547Z,6.45
2023-03-26T04:17:21.417Z,6.43
2023-03-26T04:20:07.019Z,6.07
2023-03-26T04:22:53.416Z,6.43
2023-03-26T04:29:02.401Z,5.68
2023-03-26T04:31:43.178Z,5.68
2023-03-26T04:37:34.363Z,5.90
2023-03-26T04:43:22.472Z,5.35
2023-03-26T04:46:30.468Z,6.03
2023-03-26T04:49:19.465Z,6.28
2023-03-26T04:52:06.398Z,6.65
2023-03-26T04:55:37.417Z,6.85
2023-03-26T04:58:32.849Z,6.47
2023-03-26T05:04:06.447Z,5.60
2023-03-26T05:06:55.397Z,6.03
2023-03-26T05:10:03.622Z,5.97
2023-03-26T05:13:00.398Z,5.35
2023-03-26T05:15:42.946Z,5.55
2023-03-26T05:18:49.402Z,6.57
2023-03-26T05:21:37.414Z,6.35
2023-03-26T05:24:19.667Z,6.68
2023-03-26T05:27:06.398Z,6.13
2023-03-26T05:29:53.409Z,6.53
2023-03-26T05:32:41.453Z,6.55
2023-03-26T05:35:23.595Z,6.18
2023-03-26T05:38:10.402Z,6.35
2023-03-26T05:40:57.425Z,6.47
2023-03-26T05:43:55.404Z,6.53
2023-03-26T05:46:43.402Z,5.93
2023-03-26T05:49:28.483Z,6.40
2023-03-26T05:52:15.412Z,6.70
2023-03-26T05:55:14.628Z,6.38
2023-03-26T05:58:19.406Z,5.55
2023-03-26T06:01:27.419Z,7.20
2023-03-26T06:04:35.526Z,6.22
2023-03-26T06:07:44.477Z,6.53
2023-03-26T06:10:32.452Z,6.15
2023-03-26T06:13:20.423Z,6.93
2023-03-26T06:16:07.432Z,7.18
2023-03-26T06:18:56.232Z,6.70
2023-03-26T06:22:02.404Z,7.05
2023-03-26T06:25:09.401Z,7.10
2023-03-26T06:28:11.720Z,7.32
2023-03-26T06:31:17.510Z,5.97
2023-03-26T06:34:03.932Z,7.05
2023-03-26T06:36:50.398Z,6.32
2023-03-26T06:43:09.668Z,6.43
2023-03-26T06:45:57.938Z,7.00
2023-03-26T06:49:03.411Z,6.43
2023-03-26T06:52:08.425Z,6.25
2023-03-26T06:55:10.233Z,7.13
2023-03-26T06:58:06.399Z,7.07
2023-03-26T07:01:17.451Z,7.07
2023-03-26T07:04:29.919Z,7.00
2023-03-26T07:07:35.408Z,6.53
2023-03-26T07:10:50.403Z,6.85
2023-03-26T07:13:49.419Z,6.63
2023-03-26T07:16:59.455Z,6.55
2023-03-26T07:19:58.212Z,7.25
2023-03-26T07:22:44.424Z,6.88
2023-03-26T07:26:03.489Z,7.22
2023-03-26T07:29:27.410Z,7.82
2023-03-26T07:32:42.940Z,6.70
2023-03-26T07:36:04.837Z,6.82
2023-03-26T07:39:17.422Z,7.32
2023-03-26T07:43:04.405Z,7.13
2023-03-26T07:46:10.443Z,6.90
2023-03-26T07:49:12.401Z,7.22
2023-03-26T07:52:18.413Z,7.22
2023-03-26T07:55:29.409Z,7.40
2023-03-26T07:58:56.203Z,7.93
2023-03-26T08:02:21.445Z,7.82
2023-03-26T08:05:26.556Z,7.45
2023-03-26T08:08:43.414Z,7.55
2023-03-26T08:12:24.413Z,6.97
2023-03-26T08:15:25.694Z,8.68
2023-03-26T08:18:33.423Z,7.38
2023-03-26T08:21:34.411Z,7.35
2023-03-26T08:24:55.484Z,7.35
2023-03-26T08:27:51.430Z,7.43
2023-03-26T08:30:39.416Z,7.28
2023-03-26T08:33:25.821Z,7.15
2023-03-26T08:36:13.420Z,9.05
2023-03-26T08:38:53.482Z,7.80
2023-03-26T08:42:14.407Z,7.47
2023-03-26T08:45:09.492Z,7.93
2023-03-26T08:48:28.436Z,7.47
2023-03-26T08:51:32.484Z,7.20
2023-03-26T08:54:33.422Z,6.05
2023-03-26T08:57:32.514Z,7.75
2023-03-26T09:00:52.520Z,6.60
2023-03-26T09:04:07.500Z,6.75
2023-03-26T09:07:13.411Z,5.95
2023-03-26T09:10:21.422Z,6.57
2023-03-26T09:13:29.456Z,6.55
2023-03-26T09:16:33.529Z,6.85
2023-03-26T09:19:13.477Z,6.07
2023-03-26T09:22:21.439Z,6.88
2023-03-26T09:25:23.478Z,6.10
2023-03-26T09:28:46.431Z,5.70
2023-03-26T09:31:51.539Z,5.85
2023-03-26T09:34:42.401Z,6.13
2023-03-26T09:37:56.970Z,5.63
2023-03-26T09:41:12.907Z,5.65
2023-03-26T09:44:30.428Z,5.28
2023-03-26T09:47:36.046Z,5.50
2023-03-26T09:50:24.426Z,5.28
2023-03-26T09:53:27.418Z,4.53
2023-03-26T09:56:42.149Z,4.97
2023-03-26T09:59:47.435Z,4.57
2023-03-26T10:02:51.427Z,4.80
2023-03-26T10:05:49.484Z,3.95
2023-03-26T10:08:53.423Z,4.72
2023-03-26T10:11:39.526Z,3.80
2023-03-26T10:14:58.425Z,3.72
2023-03-26T10:18:27.329Z,3.63
2023-03-26T10:21:19.431Z,3.50
2023-03-26T10:24:20.777Z,3.92
2023-03-26T10:27:24.310Z,3.53
2023-03-26T10:30:54.638Z,3.45
2023-03-26T10:36:38.481Z,2.95
2023-03-26T10:40:05.505Z,3.10
2023-03-26T10:43:13.427Z,2.80
2023-03-26T10:46:04.875Z,2.80
2023-03-26T10:49:27.414Z,2.55
2023-03-26T10:52:22.454Z,2.30
2023-03-26T10:55:16.482Z,2.58
2023-03-26T10:58:09.410Z,2.83
2023-03-26T11:03:59.439Z,3.03
2023-03-26T11:07:05.460Z,2.55
2023-03-26T11:10:21.475Z,3.00
2023-03-26T11:13:28.441Z,2.53
2023-03-26T11:16:17.346Z,2.50
2023-03-26T11:19:07.483Z,2.50
2023-03-26T11:22:13.426Z,2.20
2023-03-26T11:25:09.438Z,2.13
2023-03-26T11:27:59.983Z,2.33
2023-03-26T11:30:44.476Z,2.75
2023-03-26T11:33:38.506Z,2.20
2023-03-26T11:36:42.444Z,2.60
2023-03-26T11:39:30.509Z,2.10
2023-03-26T11:42:23.417Z,2.83
2023-03-26T11:45:17.440Z,2.33
2023-03-26T11:48:09.240Z,2.30
2023-03-26T11:51:09.434Z,2.38
2023-03-26T11:57:04.455Z,2.10
2023-03-26T11:59:57.996Z,2.72
2023-03-26T12:02:53.458Z,2.25
2023-03-26T12:05:53.551Z,2.42
2023-03-26T12:08:48.426Z,2.60
2023-03-26T12:11:35.440Z,2.03
2023-03-26T12:17:32.127Z,2.00
2023-03-26T12:20:31.519Z,2.35
2023-03-26T12:23:42.443Z,2.17
2023-03-26T12:26:27.666Z,1.90
2023-03-26T12:29:23.417Z,1.83
2023-03-26T12:32:19.494Z,1.83
2023-03-26T12:35:14.450Z,2.00
2023-03-26T12:37:54.527Z,2.10
2023-03-26T12:40:43.497Z,1.80
2023-03-26T12:44:51.503Z,1.90
2023-03-26T12:50:34.317Z,1.45
2023-03-26T12:53:37.428Z,1.92
2023-03-26T12:56:43.456Z,1.95
2023-03-26T12:59:40.591Z,1.60
2023-03-26T13:02:38.497Z,1.70
2023-03-26T13:05:28.672Z,1.70
2023-03-26T13:08:34.432Z,1.83
2023-03-26T13:11:36.541Z,1.83
2023-03-26T13:14:53.434Z,1.85
2023-03-26T13:18:12.161Z,1.85
2023-03-26T13:21:05.439Z,1.40
2023-03-26T13:24:16.443Z,2.15
2023-03-26T13:27:18.638Z,1.77
2023-03-26T13:30:48.486Z,1.50
2023-03-26T13:34:19.538Z,1.65
2023-03-26T13:37:02.463Z,1.63
2023-03-26T13:40:16.242Z,1.90
2023-03-26T13:43:40.477Z,1.52
2023-03-26T13:46:43.576Z,1.80
2023-03-26T13:49:32.461Z,1.48
2023-03-26T13:52:36.465Z,1.42
2023-03-26T13:55:30.479Z,1.65
2023-03-26T13:58:39.453Z,1.65
2023-03-26T14:01:41.002Z,2.00
2023-03-26T14:04:29.445Z,1.40
2023-03-26T14:07:30.436Z,1.38
2023-03-26T14:10:30.464Z,1.58
2023-03-26T14:13:39.229Z,1.38
2023-03-26T14:16:32.469Z,1.45
2023-03-26T14:19:42.024Z,1.30
2023-03-26T14:23:30.448Z,1.52
2023-03-26T14:26:50.426Z,1.30
2023-03-26T14:29:37.947Z,1.92
2023-03-26T14:32:52.502Z,1.33
2023-03-26T14:36:08.478Z,1.65
2023-03-26T14:39:29.428Z,1.50
2023-03-26T14:42:19.802Z,1.48
2023-03-26T14:45:43.444Z,1.42
2023-03-26T14:48:45.459Z,1.38
2023-03-26T14:52:08.440Z,1.70
2023-03-26T14:55:00.479Z,2.00
2023-03-26T14:58:18.535Z,1.55
2023-03-26T15:01:29.515Z,1.60
2023-03-26T15:04:38.396Z,1.30
2023-03-26T15:07:47.489Z,1.52
2023-03-26T15:11:05.586Z,1.50
2023-03-26T15:14:24.463Z,1.50
2023-03-26T15:17:41.479Z,1.30
2023-03-26T15:20:53.718Z,1.40
2023-03-26T15:23:57.447Z,1.60
2023-03-26T15:26:48.455Z,1.40
2023-03-26T15:29:54.463Z,1.23
2023-03-26T15:32:58.165Z,2.00
2023-03-26T15:35:47.510Z,1.75
2023-03-26T15:38:58.444Z,1.30
2023-03-26T15:41:59.960Z,1.30
2023-03-26T15:44:54.578Z,1.63
2023-03-26T15:47:48.572Z,1.45
2023-03-26T15:51:02.455Z,1.40
2023-03-26T15:54:14.903Z,1.58
2023-03-26T15:57:10.627Z,1.50
2023-03-26T16:00:21.501Z,1.58
2023-03-26T16:03:16.563Z,1.50
2023-03-26T16:06:42.446Z,1.45
2023-03-26T16:09:32.451Z,1.38
2023-03-26T16:12:19.469Z,1.70
2023-03-26T16:15:35.182Z,1.75
2023-03-26T16:18:21.437Z,1.50
2023-03-26T16:21:45.457Z,1.65
2023-03-26T16:24:35.415Z,1.30
2023-03-26T16:27:28.468Z,1.20
2023-03-26T16:33:09.573Z,1.45
2023-03-26T16:36:20.455Z,1.52
2023-03-26T16:39:25.469Z,1.33
2023-03-26T16:42:41.582Z,1.50
2023-03-26T16:45:33.458Z,1.67
2023-03-26T16:48:27.445Z,1.08
2023-03-26T16:51:26.525Z,1.23
2023-03-26T16:54:30.448Z,1.23
2023-03-26T16:57:49.656Z,1.25
2023-03-26T17:00:42.459Z,1.20
2023-03-26T17:06:43.468Z,1.25
2023-03-26T17:09:53.450Z,1.23
2023-03-26T17:12:55.453Z,1.20
2023-03-26T17:16:05.910Z,1.40
2023-03-26T17:18:58.462Z,1.17
2023-03-26T17:24:51.508Z,1.23
2023-03-26T17:28:35.460Z,1.15
2023-03-26T17:31:31.286Z,1.40
2023-03-26T17:34:55.457Z,1.50
2023-03-26T17:37:45.579Z,1.20
2023-03-26T17:40:56.612Z,1.10
2023-03-26T17:43:55.710Z,1.17
2023-03-26T17:46:50.458Z,1.52
2023-03-26T17:49:38.533Z,1.27
2023-03-26T17:52:31.452Z,1.10
2023-03-26T17:55:16.540Z,1.38
2023-03-26T17:58:09.481Z,1.20
2023-03-26T18:03:55.468Z,1.50
2023-03-26T18:06:54.548Z,1.63
2023-03-26T18:10:04.465Z,1.20
2023-03-26T18:13:16.461Z,1.30
2023-03-26T18:16:38.531Z,1.08
2023-03-26T18:19:22.783Z,1.60
2023-03-26T18:22:19.479Z,1.30
2023-03-26T18:25:03.587Z,1.52
2023-03-26T18:27:50.465Z,1.10
2023-03-26T18:30:31.564Z,1.35
2023-03-26T18:33:22.527Z,1.30
2023-03-26T18:36:03.641Z,1.40
2023-03-26T18:38:52.462Z,1.38
2023-03-26T18:41:39.169Z,1.20
2023-03-26T18:44:26.461Z,1.75
2023-03-26T18:47:13.465Z,1.50
2023-03-26T18:52:49.085Z,1.40
2023-03-26T18:55:35.470Z,1.20
2023-03-26T18:58:28.475Z,1.42
2023-03-26T19:01:20.152Z,1.02
2023-03-26T19:04:13.459Z,1.30
2023-03-26T19:06:54.755Z,1.20
2023-03-26T19:09:41.479Z,1.17
2023-03-26T19:15:18.471Z,1.25
2023-03-26T19:18:13.979Z,1.58
2023-03-26T19:21:01.483Z,1.52
2023-03-26T19:23:47.532Z,2.00
2023-03-26T19:26:35.456Z,1.50
2023-03-26T19:29:31.478Z,1.33
2023-03-26T19:32:27.553Z,1.65
2023-03-26T19:35:10.471Z,1.40
2023-03-26T19:37:54.144Z,1.20
2023-03-26T19:40:40.690Z,1.30
2023-03-26T19:43:27.597Z,1.30
2023-03-26T19:48:51.921Z,1.20
2023-03-26T19:51:45.466Z,1.30
2023-03-26T19:54:25.974Z,1.33
2023-03-26T19:57:12.499Z,1.45
2023-03-26T19:59:53.012Z,1.30
2023-03-26T20:02:40.564Z,1.02
2023-03-26T20:05:26.000Z,1.35
2023-03-26T20:08:15.473Z,1.05
2023-03-26T20:10:57.216Z,1.38
2023-03-26T20:13:44.481Z,1.20
2023-03-26T20:19:18.020Z,1.15
2023-03-26T20:22:05.211Z,1.10
2023-03-26T20:24:45.470Z,1.25
2023-03-26T20:27:32.530Z,1.35
2023-03-26T20:33:12.671Z,1.35
2023-03-26T20:35:53.530Z,1.17
2023-03-26T20:38:40.449Z,1.40
2023-03-26T20:44:12.467Z,1.20
2023-03-26T20:46:59.611Z,1.10
2023-03-26T20:49:39.459Z,1.30
2023-03-26T20:52:34.481Z,1.00
2023-03-26T20:55:23.468Z,1.17
2023-03-26T20:58:10.470Z,1.38
2023-03-26T21:00:57.659Z,1.10
2023-03-26T21:03:44.460Z,1.25
2023-03-26T21:06:25.131Z,1.20
2023-03-26T21:09:11.469Z,1.17
2023-03-26T21:12:08.410Z,1.10
2023-03-26T21:14:55.825Z,1.23
2023-03-26T21:17:42.516Z,1.00
2023-03-26T21:23:38.253Z,1.23
2023-03-26T21:26:41.791Z,0.90
2023-03-26T21:29:22.775Z,1.08
2023-03-26T21:32:09.483Z,1.00
2023-03-26T21:34:58.463Z,1.00
2023-03-26T21:37:46.485Z,1.00
2023-03-26T21:43:13.457Z,1.25
2023-03-26T21:45:57.411Z,1.00
2023-03-26T21:48:44.479Z,1.15
2023-03-26T21:51:31.471Z,1.05
2023-03-26T21:54:49.487Z,1.48
2023-03-26T21:57:57.496Z,1.00
2023-03-26T22:01:20.518Z,1.25
2023-03-26T22:04:20.530Z,1.13
2023-03-26T22:07:20.480Z,1.27
2023-03-26T22:10:00.576Z,1.17
2023-03-26T22:12:48.488Z,1.30
2023-03-26T22:15:35.654Z,0.90
2023-03-26T22:18:15.539Z,1.33
2023-03-26T22:21:04.460Z,0.98
2023-03-26T22:23:45.635Z,1.23
2023-03-26T22:29:26.477Z,0.90
2023-03-26T22:32:13.470Z,1.00
2023-03-26T22:34:53.998Z,0.77
2023-03-26T22:37:40.519Z,1.33
2023-03-26T22:40:27.481Z,1.00
2023-03-26T22:43:14.513Z,1.00
2023-03-26T22:45:55.272Z,1.23
2023-03-26T22:48:43.462Z,1.20
2023-03-26T22:51:37.469Z,0.93
2023-03-26T22:54:24.476Z,0.88
2023-03-26T22:57:04.594Z,1.15
2023-03-26T22:59:51.478Z,1.13
2023-03-26T23:02:38.512Z,0.88
2023-03-26T23:05:25.460Z,1.10
2023-03-26T23:08:07.639Z,1.55
2023-03-26T23:10:54.714Z,1.10
2023-03-26T23:13:34.534Z,1.00
2023-03-26T23:16:23.573Z,1.15
2023-03-26T23:19:04.552Z,1.00
2023-03-26T23:24:31.551Z,1.08
2023-03-26T23:27:22.706Z,1.70
2023-03-26T23:30:04.148Z,1.25
2023-03-26T23:32:50.487Z,1.00
2023-03-26T23:35:30.627Z,1.08
2023-03-26T23:38:19.482Z,1.20
2023-03-26T23:40:59.595Z,1.15
2023-03-26T23:43:54.750Z,1.20
2023-03-26T23:46:42.468Z,1.20
2023-03-26T23:49:29.572Z,1.30
2023-03-26T23:52:16.467Z,1.38
2023-03-26T23:54:56.626Z,0.98
2023-03-26T23:57:43.478Z,1.20
